Latest Weather Observations for Woolshed

IDQ60801

Issued at 5:32 pm EST Saturday 29 August 2015 (issued every 30 minutes, with the page automatically refreshed every 10 minutes)

About weather observations | Map of weather stations | Latest weather observations for QLD | Other Formats
Station Details ID: 033307 Name: WOOLSHED Lat: -19.42 Lon: 146.54 Height: 556.04 m
Data from the previous 72 hours. | See also: Recent months at Woolshed
Date/Time
EST
Temp
°C
App
Temp
°C
Dew
Point
Rel
Hum
%
Delta-T
°C
Wind Press
QNH
hPa
Press
MSL
hPa
Rain
since 9 am
mm
Dir
 
Spd
km/h
Gust
km/h
Spd
kts
Gust
kts
29/05:30pm 20.6 20.4 15.8 74 2.9 NNE 11 19 6 10 1018.2 1016.3 0.0
29/05:00pm 21.6 21.5 15.9 70 3.5 NNE 11 22 6 12 1018.0 1016.2 0.0
29/04:30pm 22.7 22.6 16.0 66 4.1 NE 11 24 6 13 1018.2 1016.3 0.0
29/04:00pm 23.1 22.5 15.7 63 4.6 NNE 13 28 7 15 1018.0 1016.2 0.0
29/03:30pm 23.3 22.7 15.6 62 4.7 NE 13 24 7 13 1018.3 1016.4 0.0
29/03:00pm 22.8 22.5 15.4 63 4.5 NNE 11 17 6 9 1018.6 1016.8 0.0
29/02:30pm 24.5 24.8 17.0 63 4.7 NNE 11 19 6 10 1019.0 1017.2 0.0
29/02:00pm 22.8 22.7 16.1 66 4.1 NNE 11 20 6 11 1019.3 1017.5 0.0
29/01:30pm 22.9 22.7 15.7 64 4.4 NNE 11 24 6 13 1019.7 1017.9 0.0
29/01:00pm 23.6 22.5 15.4 60 5.0 NNE 15 24 8 13 1020.4 1018.6 0.0
29/12:30pm 23.9 23.1 15.1 58 5.4 NE 13 22 7 12 1020.7 1018.9 0.0
29/12:00pm 23.2 22.7 15.0 60 5.0 NE 11 20 6 11 1021.1 1019.3 0.0
29/11:30am 23.3 22.7 14.6 58 5.3 NE 11 19 6 10 1021.6 1019.9 0.0
29/11:00am 24.4 23.9 15.9 59 5.3 NNE 13 24 7 13 1022.0 1020.2 0.0
29/10:30am 22.8 22.0 15.1 62 4.7 NE 13 24 7 13 1022.4 1020.6 0.0
29/10:00am 21.4 21.5 15.5 69 3.6 NE 9 19 5 10 1022.6 1020.8 0.0
29/09:30am 21.6 22.0 16.3 72 3.3 NE 9 19 5 10 1022.4 1020.6 0.0
29/09:00am 21.2 22.1 16.6 75 2.8 ENE 7 13 4 7 1022.2 1020.4 0.0
29/08:30am 19.8 20.9 17.2 85 1.6 NE 7 17 4 9 1022.4 1020.6 0.0
29/08:00am 18.7 19.9 16.9 89 1.1 NE 6 11 3 6 1022.0 1020.2 0.0
29/07:30am 18.5 20.3 17.5 94 0.6 ENE 4 7 2 4 1021.4 1019.6 0.0
29/07:00am 17.0 18.9 16.7 98 0.2 ENE 2 4 1 2 1021.2 1019.4 0.0
29/06:30am 16.7 18.4 16.2 97 0.3 NE 2 4 1 2 1020.9 1019.1 0.0
29/06:00am 16.7 18.0 16.1 96 0.4 NE 4 6 2 3 1020.5 1018.7 0.0
29/05:30am 16.8 18.5 16.2 96 0.4 ENE 2 7 1 4 1020.2 1018.4 0.0
29/05:00am 17.4 18.6 16.9 97 0.3 ENE 6 13 3 7 1019.8 1018.0 0.0
29/04:30am 17.6 18.7 17.1 97 0.3 ENE 7 15 4 8 1019.6 1017.8 0.0
29/04:00am 17.6 18.4 17.3 98 0.2 NE 9 17 5 9 1019.7 1017.9 0.0
29/03:30am 17.6 18.1 17.4 99 0.1 NE 11 19 6 10 1019.8 1018.0 0.0
29/03:00am 17.6 18.4 17.3 98 0.2 NE 9 17 5 9 1019.8 1018.0 0.0
29/02:30am 17.7 18.2 17.4 98 0.2 NE 11 19 6 10 1019.9 1018.2 0.0
29/02:00am 17.8 18.4 17.6 99 0.1 NE 11 22 6 12 1020.2 1018.4 0.0
29/01:30am 17.9 18.5 17.7 99 0.1 NE 11 17 6 9 1020.6 1018.8 0.0
29/01:00am 17.8 18.7 17.6 99 0.1 NE 9 17 5 9 1020.9 1019.1 0.0
29/12:30am 17.9 18.5 17.7 99 0.1 NE 11 22 6 12 1021.2 1019.4 0.0
29/12:00am 18.0 19.0 17.8 99 0.1 NE 9 20 5 11 1021.3 1019.5 0.0
 
Date/Time
EST
Temp
°C
App
Temp
°C
Dew
Point
Rel
Hum
%
Delta-T
°C
Wind Press
QNH
hPa
Press
MSL
hPa
Rain
since 9 am
mm
Dir
 
Spd
km/h
Gust
km/h
Spd
kts
Gust
kts
28/11:30pm 17.9 18.5 17.7 99 0.1 NE 11 19 6 10 1021.3 1019.5 0.0
28/11:00pm 18.0 19.0 17.8 99 0.1 NE 9 17 5 9 1021.4 1019.6 0.0
28/10:30pm 17.8 19.1 17.6 99 0.1 NE 7 17 4 9 1021.4 1019.6 0.0
28/10:00pm 17.9 18.9 17.7 99 0.1 NE 9 17 5 9 1021.2 1019.4 0.0
28/09:30pm 18.0 18.6 17.8 99 0.1 NE 11 19 6 10 1021.2 1019.4 0.0
28/09:00pm 18.1 19.2 17.9 99 0.1 NNE 9 19 5 10 1021.3 1019.5 0.0
28/08:30pm 18.1 19.2 17.9 99 0.1 NNE 9 19 5 10 1021.3 1019.5 0.0
28/08:00pm 18.3 19.1 18.1 99 0.1 NNE 11 20 6 11 1020.9 1019.1 0.0
28/07:30pm 18.3 19.3 17.7 96 0.4 NNE 9 20 5 11 1020.6 1018.8 0.0
28/07:00pm 18.2 19.1 16.7 91 0.9 NNE 7 13 4 7 1020.4 1018.6 0.0
28/06:30pm 18.6 19.2 15.8 84 1.7 NNE 7 13 4 7 1020.1 1018.3 0.0
28/06:00pm 19.4 19.7 14.9 75 2.7 NNE 7 15 4 8 1019.6 1017.8 0.0
28/05:30pm 20.3 19.6 15.3 73 3.0 NNE 13 24 7 13 1019.4 1017.6 0.0
28/05:00pm 21.1 20.3 15.0 68 3.7 NNE 13 22 7 12 1018.9 1017.1 0.0
28/04:30pm 21.6 20.8 15.0 66 4.0 NNE 13 22 7 12 1018.8 1017.0 0.0
28/04:00pm 22.3 21.6 15.4 65 4.2 NNE 13 19 7 10 1018.7 1016.9 0.0
28/03:30pm 22.6 21.5 15.2 63 4.5 NE 15 26 8 14 1018.6 1016.8 0.0
28/03:00pm 22.5 21.2 14.9 62 4.6 NNE 15 22 8 12 1018.7 1016.9 0.0
28/02:30pm 23.3 23.2 15.9 63 4.6 NNE 11 20 6 11 1018.7 1016.9 0.0
28/02:00pm 23.9 23.2 15.4 59 5.2 NNE 13 22 7 12 1018.9 1017.1 0.0
28/01:30pm 23.5 23.0 14.8 58 5.3 NE 11 22 6 12 1019.2 1017.4 0.0
28/01:00pm 23.4 22.7 14.4 57 5.4 NNE 11 22 6 12 1019.6 1017.8 0.0
28/12:30pm 23.9 23.5 14.0 54 6.0 NE 9 17 5 9 1020.2 1018.4 0.0
28/12:00pm 23.5 23.1 14.2 56 5.6 ENE 9 17 5 9 1020.8 1019.0 0.0
28/11:30am 22.1 22.1 14.2 61 4.7 E 7 15 4 8 1021.4 1019.6 0.0
28/11:00am 22.2 23.0 14.8 63 4.5 ENE 4 9 2 5 1022.1 1020.3 0.0
28/10:30am 21.3 21.8 14.9 67 3.9 NNE 6 9 3 5 1022.3 1020.5 0.0
28/10:00am 21.4 22.4 15.3 68 3.7 NNE 4 9 2 5 1022.5 1020.7 0.0
28/09:30am 20.4 21.0 15.2 72 3.1 ESE 6 11 3 6 1022.6 1020.8 0.0
28/09:00am 19.4 19.9 15.5 78 2.4 E 7 15 4 8 1022.6 1020.8 0.0
28/08:30am 18.6 19.5 16.0 85 1.6 ENE 6 9 3 5 1022.6 1020.8 0.0
28/08:00am 18.0 18.7 16.2 89 1.1 NE 7 11 4 6 1022.1 1020.3 0.0
28/07:30am 17.4 18.2 16.4 94 0.6 NE 7 13 4 7 1021.6 1019.9 0.0
28/07:00am 17.0 17.8 16.4 96 0.4 NE 7 11 4 6 1021.1 1019.3 0.0
28/06:30am 16.9 17.9 16.3 96 0.4 ENE 6 13 3 7 1020.8 1019.0 0.0
28/06:00am 17.2 18.1 16.6 96 0.4 NE 7 15 4 8 1020.6 1018.8 0.0
28/05:30am 17.3 18.3 16.8 97 0.3 NE 7 11 4 6 1020.4 1018.6 0.0
28/05:00am 17.2 17.8 16.7 97 0.3 ENE 9 15 5 8 1020.2 1018.4 0.0
28/04:30am 17.0 18.1 16.5 97 0.3 ENE 6 13 3 7 1020.1 1018.3 0.0
28/04:00am 17.2 18.1 16.7 97 0.3 ENE 7 11 4 6 1020.1 1018.3 0.0
28/03:30am 17.4 18.4 16.8 96 0.4 ENE 7 15 4 8 1020.1 1018.3 0.0
28/03:00am 17.4 19.0 16.8 96 0.4 NE 4 9 2 5 1020.2 1018.4 0.0
28/02:30am 17.4 18.3 16.6 95 0.5 NE 7 13 4 7 1020.3 1018.5 0.0
28/02:00am 17.6 18.7 17.1 97 0.3 NE 7 15 4 8 1020.6 1018.8 0.0
28/01:30am 17.5 18.8 17.0 97 0.3 NE 6 11 3 6 1020.7 1018.9 0.0
28/01:00am 17.4 18.4 16.9 97 0.3 NE 7 11 4 6 1020.9 1019.1 0.0
28/12:30am 17.8 19.0 17.3 97 0.3 NE 7 11 4 6 1021.3 1019.5 0.0
28/12:00am 17.8 18.9 17.2 96 0.4 NE 7 13 4 7 1021.4 1019.6 0.0
 
Date/Time
EST
Temp
°C
App
Temp
°C
Dew
Point
Rel
Hum
%
Delta-T
°C
Wind Press
QNH
hPa
Press
MSL
hPa
Rain
since 9 am
mm
Dir
 
Spd
km/h
Gust
km/h
Spd
kts
Gust
kts
27/11:30pm 17.8 19.2 17.3 97 0.3 ENE 6 9 3 5 1021.8 1020.1 0.0
27/11:00pm 17.6 18.6 16.8 95 0.5 NE 7 15 4 8 1021.7 1020.0 0.0
27/10:30pm 17.6 18.7 17.1 97 0.3 NE 7 13 4 7 1022.0 1020.2 0.0
27/10:00pm 17.7 19.0 17.2 97 0.3 NNE 6 11 3 6 1022.1 1020.3 0.0
27/09:30pm 17.9 19.1 17.3 96 0.4 NE 7 13 4 7 1022.1 1020.3 0.0
27/09:00pm 18.0 18.8 17.2 95 0.5 NE 9 19 5 10 1022.1 1020.3 0.0
27/08:30pm 18.1 19.2 17.1 94 0.6 NE 7 15 4 8 1021.6 1019.9 0.0
27/08:00pm 18.1 19.0 16.6 91 0.9 NE 7 15 4 8 1021.3 1019.5 0.0
27/07:30pm 18.4 19.7 16.2 87 1.3 NNE 4 9 2 5 1021.3 1019.5 0.0
27/07:00pm 18.4 19.1 15.5 83 1.7 N 6 9 3 5 1021.2 1019.4 0.0
27/06:30pm 18.6 19.1 14.1 75 2.7 N 4 6 2 3 1020.9 1019.1 0.0
27/06:00pm 19.7 20.1 14.7 73 3.0 NNE 6 9 3 5 1020.4 1018.6 0.0
27/05:30pm 20.3 20.4 14.4 69 3.5 NNE 7 17 4 9 1019.9 1018.2 0.0
27/05:00pm 21.7 21.8 14.4 63 4.4 NNE 7 17 4 9 1019.7 1017.9 0.0
27/04:30pm 21.9 21.3 14.5 63 4.5 N 11 24 6 13 1019.6 1017.8 0.0
27/04:00pm 22.9 22.1 15.2 62 4.7 NNE 13 26 7 14 1019.3 1017.5 0.0
27/03:30pm 23.3 22.1 14.0 56 5.6 NNE 13 24 7 13 1019.3 1017.5 0.0
27/03:00pm 21.9 21.0 13.8 60 4.8 NNE 11 24 6 13 1019.4 1017.6 0.0
27/02:30pm 23.2 22.6 14.5 58 5.3 NNE 11 20 6 11 1019.5 1017.7 0.0
27/02:00pm 23.5 22.2 13.7 54 5.8 NE 13 24 7 13 1019.6 1017.8 0.0
27/01:30pm 24.2 23.3 13.7 52 6.3 NNE 11 24 6 13 1020.2 1018.4 0.0
27/01:00pm 23.4 22.1 13.8 54 5.7 NNE 13 26 7 14 1020.6 1018.8 0.0
27/12:30pm 23.0 21.7 13.8 56 5.5 NNE 13 28 7 15 1020.9 1019.1 0.0
27/12:00pm 22.8 21.4 13.3 55 5.6 NE 13 24 7 13 1021.0 1019.2 0.0
27/11:30am 22.1 21.3 14.0 60 4.8 NE 11 22 6 12 1021.4 1019.6 0.0
27/11:00am 22.2 21.3 14.8 63 4.5 NE 13 26 7 14 1021.8 1020.1 0.0
27/10:30am 20.8 20.3 16.0 74 2.9 NE 13 22 7 12 1022.1 1020.3 0.0
27/10:00am 20.0 19.8 15.6 76 2.7 NE 11 20 6 11 1022.4 1020.6 0.0
27/09:30am 20.0 19.8 15.8 77 2.6 NE 11 20 6 11 1022.3 1020.5 0.0
27/09:00am 20.3 19.9 16.1 77 2.6 NE 13 24 7 13 1022.1 1020.3 0.0
27/08:30am 19.7 19.9 16.7 83 1.9 NE 11 20 6 11 1022.1 1020.3 0.0
27/08:00am 18.3 18.6 17.1 93 0.7 ENE 11 19 6 10 1022.0 1020.2 0.0
27/07:30am 17.6 18.3 17.0 96 0.4 NE 9 17 5 9 1021.7 1020.0 0.0
27/07:00am 17.4 18.0 16.9 97 0.3 NE 9 20 5 11 1021.2 1019.4 0.0
27/06:30am 17.2 17.5 16.9 98 0.2 NE 11 17 6 9 1020.9 1019.1 0.0
27/06:00am 17.2 17.5 16.9 98 0.2 NE 11 22 6 12 1020.3 1018.5 0.0
27/05:30am 17.1 17.2 16.6 97 0.3 NE 11 22 6 12 1019.8 1018.0 0.0
27/05:00am 17.2 17.1 16.9 98 0.2 NE 13 22 7 12 1019.7 1017.9 0.0
27/04:30am 17.2 16.7 17.0 99 0.1 NE 15 22 8 12 1019.6 1017.8 0.0
27/04:00am 17.1 17.4 16.9 99 0.1 NE 11 24 6 13 1019.4 1017.6 0.0
27/03:30am 17.2 17.1 17.0 99 0.1 NE 13 22 7 12 1019.5 1017.7 0.0
27/03:00am 17.1 17.0 16.9 99 0.1 NE 13 22 7 12 1019.5 1017.7 0.0
27/02:30am 17.2 17.1 17.0 99 0.1 NE 13 26 7 14 1019.7 1017.9 0.0
27/02:00am 17.3 17.6 17.1 99 0.1 NE 11 20 6 11 1019.8 1018.0 0.0
27/01:30am 17.4 17.7 17.1 98 0.2 NE 11 17 6 9 1020.3 1018.5 0.0
27/01:00am 17.4 17.7 16.9 97 0.3 NE 11 19 6 10 1020.9 1019.1 0.0
27/12:30am 17.4 17.7 16.9 97 0.3 NE 11 20 6 11 1021.1 1019.3 0.0
27/12:00am 17.4 17.7 17.1 98 0.2 NE 11 20 6 11 1021.3 1019.5 0.0
 
Date/Time
EST
Temp
°C
App
Temp
°C
Dew
Point
Rel
Hum
%
Delta-T
°C
Wind Press
QNH
hPa
Press
MSL
hPa
Rain
since 9 am
mm
Dir
 
Spd
km/h
Gust
km/h
Spd
kts
Gust
kts
26/11:30pm 17.3 18.0 17.0 98 0.2 NE 9 17 5 9 1021.4 1019.6 0.0
26/11:00pm 17.4 18.0 16.9 97 0.3 NE 9 20 5 11 1021.5 1019.8 0.0
26/10:30pm 17.3 17.9 16.8 97 0.3 NE 9 15 5 8 1021.7 1020.0 0.0
26/10:00pm 17.3 17.5 16.7 96 0.4 NE 11 17 6 9 1021.8 1020.1 0.0
26/09:30pm 17.6 18.2 16.8 95 0.5 NE 9 17 5 9 1022.1 1020.3 0.0
26/09:00pm 17.4 17.9 16.6 95 0.5 NE 9 17 5 9 1022.0 1020.2 0.0
26/08:30pm 17.4 17.8 16.4 94 0.6 NE 9 15 5 8 1022.0 1020.2 0.0
26/08:00pm 17.4 18.2 16.3 93 0.7 NE 7 13 4 7 1022.0 1020.2 0.0
26/07:30pm 17.7 18.4 16.0 90 1.0 NE 7 13 4 7 1021.6 1019.9 0.0
26/07:00pm 18.2 18.3 15.6 85 1.6 NE 9 15 5 8 1021.2 1019.4 0.0
26/06:30pm 18.8 18.4 15.3 80 2.1 NE 11 19 6 10 1020.9 1019.1 0.0
26/06:00pm 19.1 18.3 15.2 78 2.3 NE 13 24 7 13 1020.6 1018.8 0.0

Other Formats:

Comma delimited format used in spreadsheet applications
http://www.bom.gov.au/fwo/IDQ60801/IDQ60801.95293.axf

JavaScript Object Notation format (JSON) in row-major order
http://www.bom.gov.au/fwo/IDQ60801/IDQ60801.95293.json